Latest Coastal Weather Observations for Wilsons Promontory

IDT60701

Issued at 10:35 am EST Thursday 24 April 2014 (issued every 10 minutes, with the page automatically refreshed every 10 minutes)

About coastal observations | Map of coastal stations | Coastal observations for TAS | Marine services | Other Formats
Station Details ID: 085096 Name: WILSONS PROMONTORY LIGHTHOUSE Lat: -39.13 Lon: 146.42 Height: 95.0 m
Data from the previous 72 hours. | See also: Recent months at Wilsons Promontory
Date/Time
EST
Temp

°C
Wind Pressure Rain
since 9am
mm
Weather Cloud Vis
km
Sea
Height
m
Swell
Dir
 
Speed
knots
Gust
knots
hPa Trend Height
m
Period
s
Dir
24/10:30am 14.2 W 33 45 1010.7 - 0.0 - - - - - - -
24/10:00am 14.2 W 34 46 1010.1 - 0.0 - - - - - - -
24/09:30am 14.2 W 28 46 1009.5 - 0.0 - - - - - - -
24/09:00am 14.3 W 33 48 1008.7 - 7.4 - - - - - - -
24/08:52am 14.0 WSW 35 45 1009.0 - 7.4 - - - - - - -
24/08:49am 13.7 WSW 34 43 1008.8 - 7.4 - - - - - - -
24/08:35am 13.4 W 23 33 1009.3 - 7.4 - - - - - - -
24/08:30am 12.9 W 24 31 1009.4 - 7.4 - - - - - - -
24/08:04am 12.9 W 21 31 1009.0 - 6.8 - - - - - - -
24/08:00am 12.9 W 24 33 1008.9 - 6.6 - - - - - - -
24/07:30am 12.4 W 27 39 1008.4 - 6.0 - - - - - - -
24/07:18am 12.4 W 23 37 1008.4 - 4.6 - - - - - - -
24/07:09am 12.9 WSW 35 45 1007.2 - 0.2 - - - - - - -
24/07:05am 14.2 WSW 35 44 1006.9 - 0.0 - - - - - - -
24/07:00am 14.7 W 23 40 1007.2 - 0.0 - - - - - - -
24/06:32am 15.3 W 19 47 1006.6 - 0.0 - - - - - - -
24/06:30am 15.2 W 16 32 1007.2 - 0.0 - - - - - - -
24/06:00am 15.3 WNW 15 30 1006.6 - 0.0 - - - - - - -
24/05:37am 15.2 WNW 19 43 1006.5 - 0.0 - - - - - - -
24/05:30am 15.1 WNW 16 29 1006.9 - 0.0 - - - - - - -
24/05:08am 14.9 WNW 15 27 1006.9 - 0.0 - - - - - - -
24/05:00am 14.8 WNW 12 29 1006.8 - 0.0 - - - - - - -
24/04:30am 14.8 WNW 7 15 1006.9 - 0.0 - - - - - - -
24/04:00am 14.6 N 7 25 1007.0 - 0.0 - - - - - - -
24/03:30am 14.8 NNW 12 27 1007.3 - 0.0 - - - - - - -
24/03:00am 15.1 NNW 12 23 1007.6 - 0.0 - - - - - - -
24/02:30am 15.0 NNW 10 26 1008.2 - 0.0 - - - - - - -
24/02:00am 14.9 NW 13 22 1008.6 - 0.0 - - - - - - -
24/01:30am 14.5 N 10 19 1009.1 - 0.0 - - - - - - -
24/01:00am 14.3 N 10 20 1009.8 - 0.0 - - - - - - -
24/12:30am 14.3 N 8 16 1010.1 - 0.0 - - - - - - -
24/12:00am 14.1 N 6 15 1010.4 - 0.0 - - - - - - -
 
Date/Time
EST
Temp

°C
Wind Pressure Rain
since 9am
mm
Weather Cloud Vis
km
Sea
Height
m
Swell
Dir
 
Speed
knots
Gust
knots
hPa Trend Height
m
Period
s
Dir
23/11:30pm 14.0 N 8 16 1010.7 - 0.0 - - - - - - -
23/11:00pm 14.1 N 8 16 1011.2 - 0.0 - - - - - - -
23/10:30pm 14.1 N 8 11 1011.7 - 0.0 - - - - - - -
23/10:00pm 13.8 NNW 7 14 1011.9 - 0.0 - - - - - - -
23/09:30pm 13.6 N 7 11 1012.1 - 0.0 - - - - - - -
23/09:00pm 13.7 N 5 8 1012.2 - 0.0 - - - - - - -
23/08:30pm 13.7 NNW 5 7 1012.4 - 0.0 - - - - - - -
23/08:00pm 13.9 N 4 7 1012.5 - 0.0 - - - - - - -
23/07:30pm 14.0 N 4 7 1012.8 - 0.0 - - - - - - -
23/07:00pm 14.1 NW 6 11 1012.8 - 0.0 - - - - - - -
23/06:30pm 14.2 NW 4 10 1012.7 - 0.0 - - - - - - -
23/06:00pm 14.3 WNW 9 14 1012.5 - 0.0 - - - - - - -
23/05:30pm 14.7 WNW 8 14 1012.6 - 0.0 - - - - - - -
23/05:00pm 15.1 W 10 15 1012.6 - 0.0 - - - - - - -
23/04:30pm 15.4 W 6 11 1012.6 - 0.0 - - - - - - -
23/04:00pm 15.6 W 8 11 1012.6 - 0.0 - - - - - - -
23/03:30pm 15.7 W 7 12 1012.8 - 0.0 - - - - - - -
23/03:00pm 15.7 W 10 15 1012.8 - 0.0 - - - - - - -
23/02:30pm 16.0 W 9 14 1013.0 - 0.0 - - - - - - -
23/02:00pm 15.7 W 10 15 1013.2 - 0.0 - - - - - - -
23/01:30pm 16.1 W 10 15 1013.5 - 0.0 - - - - - - -
23/01:00pm 16.3 W 10 16 1013.7 - 0.0 - - - - - - -
23/12:30pm 16.2 ESE 4 6 1014.1 - 0.0 - - - - - - -
23/12:00pm 15.8 ESE 4 5 1014.5 - 0.0 - - - - - - -
23/11:30am 16.3 SE 3 5 1015.1 - 0.0 - - - - - - -
23/11:00am 16.7 SE 3 5 1015.4 - 0.0 - - - - - - -
23/10:30am 15.7 E 3 4 1015.7 - 0.0 - - - - - - -
23/10:00am 16.0 ENE 4 5 1015.8 - 0.0 - - - - - - -
23/09:30am 16.3 NE 4 6 1015.8 - 0.0 - - - - - - -
23/09:00am 16.9 ENE 2 5 1016.0 - 0.8 - - - - - - -
23/08:30am 16.1 NNE 3 5 1016.0 - 0.8 - - - - - - -
23/08:00am 15.8 N 3 5 1016.0 - 0.8 - - - - - - -
23/07:30am 14.3 N 5 7 1015.8 - 0.8 - - - - - - -
23/07:00am 13.9 NNW 5 6 1015.9 - 0.8 - - - - - - -
23/06:30am 13.7 N 6 7 1015.7 - 0.8 - - - - - - -
23/06:00am 13.7 N 6 7 1015.5 - 0.8 - - - - - - -
23/05:30am 13.6 N 4 5 1015.6 - 0.8 - - - - - - -
23/05:00am 13.5 N 4 5 1015.6 - 0.8 - - - - - - -
23/04:30am 13.9 NW 4 5 1015.5 - 0.8 - - - - - - -
23/04:00am 13.9 WNW 7 8 1015.5 - 0.8 - - - - - - -
23/03:30am 14.0 WNW 6 8 1015.5 - 0.8 - - - - - - -
23/03:00am 13.7 W 7 9 1015.6 - 0.8 - - - - - - -
23/02:30am 13.6 W 8 9 1015.8 - 0.8 - - - - - - -
23/02:00am 13.6 W 8 10 1015.9 - 0.8 - - - - - - -
23/01:30am 13.7 W 9 12 1016.1 - 0.8 - - - - - - -
23/01:00am 13.6 W 8 9 1016.5 - 0.8 - - - - - - -
23/12:30am 13.7 W 9 11 1016.6 - 0.8 - - - - - - -
23/12:00am 13.6 W 8 10 1016.5 - 0.8 - - - - - - -
 
Date/Time
EST
Temp

°C
Wind Pressure Rain
since 9am
mm
Weather Cloud Vis
km
Sea
Height
m
Swell
Dir
 
Speed
knots
Gust
knots
hPa Trend Height
m
Period
s
Dir
22/11:30pm 13.7 WNW 10 13 1016.8 - 0.8 - - - - - - -
22/11:00pm 13.8 W 10 13 1016.9 - 0.8 - - - - - - -
22/10:30pm 13.9 W 9 11 1017.0 - 0.8 - - - - - - -
22/10:00pm 14.1 W 8 12 1017.0 - 0.8 - - - - - - -
22/09:30pm 14.3 WNW 8 15 1016.9 - 0.8 - - - - - - -
22/09:00pm 14.3 W 10 14 1016.3 - 0.8 - - - - - - -
22/08:30pm 14.3 W 10 15 1016.1 - 0.8 - - - - - - -
22/08:00pm 14.6 W 10 17 1016.0 - 0.8 - - - - - - -
22/07:30pm 14.8 WSW 19 24 1015.6 - 0.8 - - - - - - -
22/07:00pm 15.0 SW 22 25 1015.3 - 0.8 - - - - - - -
22/06:30pm 15.0 WSW 20 26 1014.9 - 0.8 - - - - - - -
22/06:00pm 14.9 SW 25 29 1014.0 - 0.8 - - - - - - -
22/05:30pm 15.0 SW 24 28 1013.7 - 0.8 - - - - - - -
22/05:00pm 15.1 SW 24 27 1013.4 - 0.8 - - - - - - -
22/04:51pm 15.2 SW 24 26 1013.4 - 0.8 - - - - - - -
22/04:30pm 15.5 W 16 22 1013.4 - 0.8 - - - - - - -
22/04:00pm 15.7 W 15 21 1013.3 - 0.8 - - - - - - -
22/03:30pm 15.5 W 16 23 1013.1 - 0.8 - - - - - - -
22/03:00pm 15.3 W 13 18 1012.9 - 0.8 - - - - - - -
22/02:30pm 15.0 WSW 18 28 1012.4 - 0.8 - - - - - - -
22/02:06pm 15.4 W 20 30 1012.6 - 0.8 - - - - - - -
22/02:00pm 15.6 W 23 30 1012.3 - 0.8 - - - - - - -
22/01:30pm 16.4 W 18 32 1012.4 - 0.8 - - - - - - -
22/01:00pm 16.5 WNW 18 29 1012.4 - 0.8 - - - - - - -
22/12:30pm 16.7 WNW 15 31 1012.3 - 0.8 - - - - - - -
22/12:00pm 16.7 N 6 16 1012.8 - 0.8 - - - - - - -
22/11:30am 16.0 NW 10 25 1013.0 - 0.8 - - - - - - -
22/11:00am 16.3 NNW 10 23 1012.8 - 0.8 - - - - - - -
22/10:30am 16.2 NNW 12 24 1012.3 - 0.8 - - - - - - -
22/10:00am 15.9 NNW 10 25 1012.6 - 0.8 - - - - - - -
22/09:30am 14.9 NNW 17 34 1012.4 - 0.6 - - - - - - -
22/09:00am 14.6 NNW 19 35 1012.2 - 13.0 - - - - - - -
22/08:32am 14.3 NNW 15 29 1012.7 - 12.6 - - - - - - -
22/08:30am 14.4 NNW 14 29 1012.7 - 12.6 - - - - - - -
22/08:02am 14.2 NNW 15 29 1012.7 - 11.8 - - - - - - -
22/08:00am 14.1 NNW 14 29 1012.8 - 11.8 - - - - - - -
22/07:33am 14.1 WNW 19 33 1012.7 - 10.4 - - - - - - -
22/07:30am 14.1 NNW 9 38 1013.0 - 10.2 - - - - - - -
22/07:18am 14.2 W 20 44 1012.6 - 9.6 - - - - - - -
22/07:14am 14.3 W 19 33 1012.9 - 9.4 - - - - - - -
22/07:00am 14.5 NW 6 15 1012.6 - 7.8 - - - - - - -
22/06:30am 14.5 NNW 11 20 1012.4 - 6.8 - - - - - - -
22/06:00am 14.9 WNW 11 27 1012.9 - 5.6 - - - - - - -
22/05:40am 15.9 W 15 26 1012.0 - 4.8 - - - - - - -
22/05:30am 15.8 W 14 22 1012.0 - 4.6 - - - - - - -
22/05:22am 16.2 WNW 15 25 1012.0 - 4.6 - - - - - - -
22/05:00am 16.9 WNW 6 18 1011.5 - 4.4 - - - - - - -
22/04:30am 17.0 NE 3 33 1011.4 - 4.4 - - - - - - -
22/04:22am 17.0 NW 19 33 1011.2 - 4.4 - - - - - - -
22/04:00am 16.7 W 27 41 1011.0 - 4.4 - - - - - - -
22/03:30am 15.5 W 30 44 1011.5 - 4.4 - - - - - - -
22/03:18am 15.2 W 37 51 1011.4 - 3.8 - - - - - - -
22/03:00am 16.9 W 25 40 1011.7 - 0.6 - - - - - - -
22/02:43am 17.3 W 15 38 1011.6 - 0.6 - - - - - - -
22/02:30am 17.5 W 15 23 1011.6 - 0.6 - - - - - - -
22/02:00am 17.6 NNW 13 28 1010.7 - 0.6 - - - - - - -
22/01:30am 17.2 WNW 7 23 1011.5 - 0.6 - - - - - - -
22/01:00am 18.0 W 15 28 1011.5 - 0.6 - - - - - - -
22/12:30am 20.1 NNW 19 41 1011.1 - 0.6 - - - - - - -
22/12:00am 20.0 NNW 18 37 1011.2 - 0.6 - - - - - - -
 
Date/Time
EST
Temp

°C
Wind Pressure Rain
since 9am
mm
Weather Cloud Vis
km
Sea
Height
m
Swell
Dir
 
Speed
knots
Gust
knots
hPa Trend Height
m
Period
s
Dir
21/11:30pm 20.3 N 20 33 1011.3 - 0.6 - - - - - - -
21/11:00pm 20.4 NNW 22 35 1011.2 - 0.6 - - - - - - -
21/10:30pm 20.3 NNW 21 40 1011.3 - 0.6 - - - - - - -
21/10:00pm 20.4 NNW 21 38 1011.6 - 0.6 - - - - - - -
21/09:30pm 20.1 N 19 34 1012.0 - 0.6 - - - - - - -
21/09:00pm 19.9 NNW 17 30 1012.4 - 0.6 - - - - - - -
21/08:43pm 19.0 N 16 29 1012.7 - 0.6 - - - - - - -
21/08:30pm 17.1 N 13 18 1012.7 - 0.6 - - - - - - -
21/08:00pm 17.5 N 18 24 1012.6 - 0.6 - - - - - - -
21/07:30pm 17.1 N 17 24 1012.8 - 0.6 - - - - - - -
21/07:00pm 16.7 N 14 21 1012.7 - 0.6 - - - - - - -
21/06:30pm 16.3 NNE 11 16 1012.9 - 0.6 - - - - - - -
21/06:00pm 16.1 NNE 13 19 1012.7 - 0.4 - - - - - - -
21/05:30pm 15.8 NNE 11 16 1013.1 - 0.4 - - - - - - -
21/05:00pm 15.6 NNE 9 13 1013.3 - 0.4 - - - - - - -
21/04:30pm 16.3 NNE 8 11 1013.9 - 0.2 - - - - - - -
21/04:00pm 16.4 NNE 7 9 1014.2 - 0.2 - - - - - - -
21/03:30pm 16.9 N 5 6 1014.9 - 0.2 - - - - - - -
21/03:00pm 17.1 NW 2 5 1015.6 - 0.2 - - - - - - -
21/02:30pm 17.8 N 9 14 1015.1 - 0.0 - - - - - - -
21/02:00pm 17.8 N 7 11 1015.1 - 0.0 - - - - - - -
21/01:30pm 17.5 NNW 12 18 1015.3 - 0.0 - - - - - - -
21/01:00pm 17.7 NNW 9 15 1015.4 - 0.0 - - - - - - -
21/12:30pm 17.2 N 9 14 1016.0 - 0.0 - - - - - - -
21/12:00pm 17.5 NNW 12 20 1016.4 - 0.0 - - - - - - -
21/11:30am 16.9 NNW 14 23 1016.7 - 0.0 - - - - - - -
21/11:14am 16.9 NW 15 29 1016.6 - 0.0 - - - - - - -
21/11:00am 17.0 NNW 13 24 1016.9 - 0.0 - - - - - - -

Other Formats:

Comma delimited format used in spreadsheet applications
http://www.bom.gov.au/fwo/IDT60701/IDT60701.94893.axf

JavaScript Object Notation format (JSON) in row-major order
http://www.bom.gov.au/fwo/IDT60701/IDT60701.94893.json